Medford, OR

9:24 PM PDT on August 30, 2014 (GMT -0700)
Southwest Medford (CW2551) | Change Station
CLOSE
Current Station
Personal Weather Station
Location: Medford, OR
Elevation: 1472 ft
Nearby Weather Stations

Elev 1472 ft 42.31 °N, 122.90 °W | Updated 2 seconds ago

Scattered Clouds
Scattered Clouds
66.4 °F
Feels Like 66.4 °F
N
0.0
Wind Variable Wind from NNE
Gusts 0.0 mph

Today
High -- | Low -- °F
--% Chance of Precip.
Yesterday
High -- | Low -- °F
Precip. -- in
6:34 AM 7:48 PM
Waxing Crescent, 27% visible
Pressure 29.96 in
Visibility 10.0 miles
Clouds Few 5000 ft
Scattered Clouds 6500 ft
Dew Point 54 °F
Humidity 64%
Rainfall 0.00 in
Snow Depth Not available.
UV 0.0 out of 12
Pollen 6.20 out of 12
Air Quality Not available.
Flu Activity Not available.
METAR KMFR 310353Z 04008KT 10SM FEW050 SCT065 21/12 A2998 RMK AO2 SLP146 T02060117

More Conditions Fewer Conditions

Pressure 29.96 in
Visibility 10.0 miles
Clouds Few 5000 ft
Scattered Clouds 6500 ft
Dew Point 54 °F
Humidity 64%
Rainfall 0.00 in
Snow Depth Not available.
UV 0.0 out of 12
Pollen 6.20 out of 12
Air Quality Not available.
Flu Activity Not available.
METAR KMFR 310353Z 04008KT 10SM FEW050 SCT065 21/12 A2998 RMK AO2 SLP146 T02060117

More Conditions Fewer Conditions

10-Day Weather Forecast

Almanac

Astronomy

Aug. 30, 2014 Rise Set
Actual Time 6:34 AM PDT 7:48 PM PDT
Civil Twilight 6:05 AM PDT 8:17 PM PDT
Nautical Twilight 5:30 AM PDT 8:52 PM PDT
Astronomical Twilight 4:54 AM PDT 9:28 PM PDT
Moon 11:34 AM PDT (8/30) 10:19 PM PDT (8/30)
Length of Visible Light 14h 11m
Length of Day
13h 13m
Tomorrow will be 2m 43s shorter.
Waxing Crescent, 27% of the Moon is Illuminated
Aug 31
Waxing Crescent
Sep 2
First Quarter
Sep 8
Full
Sep 15
Last Quarter
Sep 24
New

Today's Extremes

State Highs State Lows

Community

WunderPhotos

Upload Photos

1,748,776 photos uploaded!

Nearby

Snow Depth

Station Depth Elevation
Fish Lake 0 in 4665 ft
Bigelow Camp 0 in 5120 ft
Billie Creek Divide 0 in 5300 ft
Fourmile Lake 2 in 6000 ft
Cold Springs Camp 0 in 6100 ft

Earthquake Activity

City Distance Mag. Time & Date
No recent earthquake activity has been reported nearby.
Minimum magnitude displayed is 2.5.

Coastal Water Temperatures

Place Temperature
No Stations Reporting

Nearby Weather Stations